New York, New York
Current Conditions -  °F | °C
As of 6:51 PM on Saturday 22 Nov 2014 (Local Time) from KNYC Reporting Station
Broken Clouds Broken Clouds  
Wind Chill:   Ceiling: 7500
Heat Index:   Visibility: 10mi
Dew Point: -8°   Wind: 7mph
Humidity: 35%   Direction: 240°WSW
Pressure: 30.25"   Gusts: NA
Location:  40.71°N, 74.01°W
Report Text: KNYC 222351Z AUTO 24006KT 10SM SCT044 BKN075 BKN100 06/M08 A3025 RMK AO2 SLP237 T00611083 10067 20044 58015 $
Loading
Personal Weather Stations






























Interactive Weather Map New forecast layout! Learn more

10-Day Weather Forecast

Advertisements
Track Severe Weather on mobile